This is the latest recevied weather packets stored in our database for station/object BMCB-18. If no packets are shown the sender has not sent any weather packets the latest 10 day(s).
| Time | Temp. | Humidity | Pressure | Rain* | Wind** | Luminosity | Snow |
|---|---|---|---|---|---|---|---|
| 1777353641 | 6.67° C | 75% | 1021.5 hPa | 0 mm | - | 42 W/m² | - |
| 1777341043 | 8.33° C | 70% | 1022 hPa | 0 mm | - | 0 W/m² | - |
| 1777340446 | 8.33° C | 70% | 1022.1 hPa | 0 mm | - | 0 W/m² | - |
| 1777336246 | 8.89° C | 67% | 1022.1 hPa | 0 mm | - | 0 W/m² | - |
| 1777335643 | 8.89° C | 66% | 1022.1 hPa | 0 mm | - | 0 W/m² | - |
| 1777335045 | 8.33° C | 67% | 1022.2 hPa | 0 mm | - | 0 W/m² | - |
| 1777334445 | 8.89° C | 65% | 1022.2 hPa | 0 mm | - | 0 W/m² | - |
| 1777326050 | 10° C | 62% | 1022 hPa | 0 mm | - | 0 W/m² | - |
| 1777321849 | 10° C | 60% | 1022.2 hPa | 0 mm | - | 0 W/m² | - |
| 1777302048 | 17.78° C | 34% | 1022.6 hPa | 0 mm | - | 554 W/m² | - |
| 1777300846 | 17.78° C | 35% | 1022.8 hPa | 0 mm | - | 602 W/m² | - |
| 1777296647 | 17.22° C | 35% | 1023.6 hPa | 0 mm | - | 658 W/m² | - |
| 1777296045 | 17.78° C | 35% | 1023.6 hPa | 0 mm | - | 622 W/m² | - |
| 1777292443 | 16.67° C | 43% | 1024 hPa | 0 mm | - | 818 W/m² | - |
| 1777287047 | 15° C | 49% | 1024.9 hPa | 0 mm | - | 596 W/m² | - |
| 1777282243 | 13.89° C | 52% | 1025.3 hPa | 0 mm | - | 576 W/m² | - |
| 1777276847 | 10.56° C | 64% | 1025.6 hPa | 0 mm | - | 356 W/m² | - |
| 1777270246 | 6.67° C | 85% | 1025.9 hPa | 0 mm | - | 122 W/m² | - |
| 1777269647 | 6.11° C | 88% | 1025.9 hPa | 0 mm | - | 130 W/m² | - |
| 1777268446 | 3.89° C | 96% | 1025.9 hPa | 0 mm | - | 126 W/m² | - |
| 1777264843 | 0.56° C | 97% | 1025.4 hPa | 0 mm | - | 12 W/m² | - |
| 1777261243 | 1.67° C | 95% | 1025.4 hPa | 0 mm | - | 0 W/m² | - |
| 1777260646 | 1.67° C | 95% | 1025.5 hPa | 0 mm | - | 0 W/m² | - |
| 1777259445 | 1.67° C | 94% | 1025.4 hPa | 0 mm | - | 0 W/m² | - |
| 1777254644 | 2.78° C | 91% | 1025.5 hPa | 0 mm | - | 0 W/m² | - |
* Rain latest hour (hover to see other rain measurements)
** Current wind speed in m/s (hover to see current wind gust speed)